sensor_id;sensor_type;location;lat;lon;timestamp;P1;durP1;ratioP1;P2;durP2;ratioP2
83241;SDS011;73133;47.848;9.000;2023-12-20T04:03:10;15.95;;;7.25;;
83241;SDS011;73133;47.848;9.000;2023-12-20T04:05:38;16.52;;;7.63;;
83241;SDS011;73133;47.848;9.000;2023-12-20T04:08:05;16.42;;;8.60;;
83241;SDS011;73133;47.848;9.000;2023-12-20T04:10:30;14.93;;;9.02;;
83241;SDS011;73133;47.848;9.000;2023-12-20T04:12:56;16.50;;;8.63;;
83241;SDS011;73133;47.848;9.000;2023-12-20T04:15:21;12.23;;;5.85;;
83241;SDS011;73133;47.848;9.000;2023-12-20T04:17:47;7.85;;;4.60;;
83241;SDS011;73133;47.848;9.000;2023-12-20T04:20:12;5.63;;;4.67;;
83241;SDS011;73133;47.848;9.000;2023-12-20T04:22:37;4.57;;;4.03;;
83241;SDS011;73133;47.848;9.000;2023-12-20T04:25:03;5.93;;;4.40;;
83241;SDS011;73133;47.848;9.000;2023-12-20T04:27:28;7.38;;;4.05;;
83241;SDS011;73133;47.848;9.000;2023-12-20T04:29:54;6.45;;;4.95;;
83241;SDS011;73133;47.848;9.000;2023-12-20T04:32:19;4.45;;;3.83;;
83241;SDS011;73133;47.848;9.000;2023-12-20T04:34:44;5.90;;;3.93;;
83241;SDS011;73133;47.848;9.000;2023-12-20T04:37:09;6.57;;;5.20;;
83241;SDS011;73133;47.848;9.000;2023-12-20T04:39:35;7.57;;;5.03;;
83241;SDS011;73133;47.848;9.000;2023-12-20T04:42:00;7.72;;;5.95;;
83241;SDS011;73133;47.848;9.000;2023-12-20T04:44:26;7.30;;;4.90;;
83241;SDS011;73133;47.848;9.000;2023-12-20T04:46:51;9.52;;;5.13;;
83241;SDS011;73133;47.848;9.000;2023-12-20T04:49:17;5.82;;;4.47;;
83241;SDS011;73133;47.848;9.000;2023-12-20T04:51:42;6.32;;;4.85;;
83241;SDS011;73133;47.848;9.000;2023-12-20T04:54:07;6.33;;;5.00;;
83241;SDS011;73133;47.848;9.000;2023-12-20T04:56:32;6.57;;;4.50;;
83241;SDS011;73133;47.848;9.000;2023-12-20T04:58:58;8.63;;;5.03;;
83241;SDS011;73133;47.848;9.000;2023-12-20T05:01:23;5.57;;;4.67;;
83241;SDS011;73133;47.848;9.000;2023-12-20T05:03:48;5.72;;;4.68;;
83241;SDS011;73133;47.848;9.000;2023-12-20T05:06:14;7.70;;;4.90;;
83241;SDS011;73133;47.848;9.000;2023-12-20T05:08:39;8.95;;;4.82;;
83241;SDS011;73133;47.848;9.000;2023-12-20T05:11:05;8.90;;;4.85;;
83241;SDS011;73133;47.848;9.000;2023-12-20T05:13:31;7.57;;;5.18;;
83241;SDS011;73133;47.848;9.000;2023-12-20T05:15:56;5.43;;;4.60;;
83241;SDS011;73133;47.848;9.000;2023-12-20T05:18:21;5.97;;;4.80;;
83241;SDS011;73133;47.848;9.000;2023-12-20T05:20:48;5.03;;;4.57;;
83241;SDS011;73133;47.848;9.000;2023-12-20T05:23:14;6.68;;;4.47;;
83241;SDS011;73133;47.848;9.000;2023-12-20T05:25:40;6.40;;;5.03;;
83241;SDS011;73133;47.848;9.000;2023-12-20T05:28:05;7.13;;;4.55;;
83241;SDS011;73133;47.848;9.000;2023-12-20T05:30:30;6.65;;;4.18;;
83241;SDS011;73133;47.848;9.000;2023-12-20T05:32:56;5.35;;;4.63;;
83241;SDS011;73133;47.848;9.000;2023-12-20T05:35:21;4.63;;;4.10;;
83241;SDS011;73133;47.848;9.000;2023-12-20T05:37:48;6.68;;;5.13;;
83241;SDS011;73133;47.848;9.000;2023-12-20T05:40:14;6.82;;;4.60;;
83241;SDS011;73133;47.848;9.000;2023-12-20T05:42:39;8.75;;;5.13;;
83241;SDS011;73133;47.848;9.000;2023-12-20T05:45:04;6.28;;;5.00;;
83241;SDS011;73133;47.848;9.000;2023-12-20T05:47:33;8.90;;;5.28;;
83241;SDS011;73133;47.848;9.000;2023-12-20T05:49:58;5.80;;;5.05;;
83241;SDS011;73133;47.848;9.000;2023-12-20T05:52:24;9.02;;;5.53;;
83241;SDS011;73133;47.848;9.000;2023-12-20T05:54:49;13.43;;;7.22;;
83241;SDS011;73133;47.848;9.000;2023-12-20T05:57:15;15.75;;;6.15;;
83241;SDS011;73133;47.848;9.000;2023-12-20T05:59:40;13.52;;;7.65;;
83241;SDS011;73133;47.848;9.000;2023-12-20T06:02:06;15.65;;;7.30;;
83241;SDS011;73133;47.848;9.000;2023-12-20T06:04:31;27.17;;;9.45;;
83241;SDS011;73133;47.848;9.000;2023-12-20T06:06:57;22.45;;;7.57;;
83241;SDS011;73133;47.848;9.000;2023-12-20T06:09:22;6.95;;;5.28;;
83241;SDS011;73133;47.848;9.000;2023-12-20T06:11:48;11.75;;;6.00;;
83241;SDS011;73133;47.848;9.000;2023-12-20T06:14:13;17.67;;;9.35;;
83241;SDS011;73133;47.848;9.000;2023-12-20T06:16:38;7.53;;;6.10;;
83241;SDS011;73133;47.848;9.000;2023-12-20T06:19:06;6.85;;;5.28;;
83241;SDS011;73133;47.848;9.000;2023-12-20T06:21:32;5.82;;;5.07;;
83241;SDS011;73133;47.848;9.000;2023-12-20T06:23:58;5.00;;;4.45;;
83241;SDS011;73133;47.848;9.000;2023-12-20T06:26:24;6.53;;;5.03;;
83241;SDS011;73133;47.848;9.000;2023-12-20T06:28:49;9.43;;;5.20;;
83241;SDS011;73133;47.848;9.000;2023-12-20T06:31:15;6.78;;;6.10;;
83241;SDS011;73133;47.848;9.000;2023-12-20T06:33:40;13.38;;;6.22;;
83241;SDS011;73133;47.848;9.000;2023-12-20T06:36:07;9.32;;;7.53;;
83241;SDS011;73133;47.848;9.000;2023-12-20T06:38:32;7.90;;;6.05;;
83241;SDS011;73133;47.848;9.000;2023-12-20T06:40:57;6.88;;;5.40;;
83241;SDS011;73133;47.848;9.000;2023-12-20T06:43:23;7.75;;;5.78;;
83241;SDS011;73133;47.848;9.000;2023-12-20T06:45:49;6.13;;;5.22;;
83241;SDS011;73133;47.848;9.000;2023-12-20T06:48:14;6.38;;;4.80;;
83241;SDS011;73133;47.848;9.000;2023-12-20T06:50:39;7.57;;;5.80;;
83241;SDS011;73133;47.848;9.000;2023-12-20T06:53:05;8.60;;;4.97;;
83241;SDS011;73133;47.848;9.000;2023-12-20T06:55:32;6.55;;;4.70;;
83241;SDS011;73133;47.848;9.000;2023-12-20T06:57:58;6.93;;;5.57;;
83241;SDS011;73133;47.848;9.000;2023-12-20T07:00:24;8.75;;;5.47;;
83241;SDS011;73133;47.848;9.000;2023-12-20T07:02:49;5.80;;;4.77;;
83241;SDS011;73133;47.848;9.000;2023-12-20T07:05:18;6.50;;;4.80;;
83241;SDS011;73133;47.848;9.000;2023-12-20T07:07:45;26.63;;;4.70;;
83241;SDS011;73133;47.848;9.000;2023-12-20T07:10:11;6.15;;;5.53;;
83241;SDS011;73133;47.848;9.000;2023-12-20T07:12:37;5.28;;;4.78;;
83241;SDS011;73133;47.848;9.000;2023-12-20T07:15:02;4.80;;;4.30;;
83241;SDS011;73133;47.848;9.000;2023-12-20T07:17:28;7.70;;;4.78;;
83241;SDS011;73133;47.848;9.000;2023-12-20T07:19:53;6.13;;;5.53;;
83241;SDS011;73133;47.848;9.000;2023-12-20T07:22:18;5.65;;;4.65;;
83241;SDS011;73133;47.848;9.000;2023-12-20T07:24:44;5.40;;;4.87;;
83241;SDS011;73133;47.848;9.000;2023-12-20T07:27:09;8.03;;;5.77;;
83241;SDS011;73133;47.848;9.000;2023-12-20T07:29:34;5.20;;;4.70;;
83241;SDS011;73133;47.848;9.000;2023-12-20T07:32:00;6.07;;;5.47;;
83241;SDS011;73133;47.848;9.000;2023-12-20T07:34:25;6.23;;;5.20;;
83241;SDS011;73133;47.848;9.000;2023-12-20T07:36:50;7.00;;;6.40;;
83241;SDS011;73133;47.848;9.000;2023-12-20T07:39:16;8.80;;;5.93;;
83241;SDS011;73133;47.848;9.000;2023-12-20T07:41:41;7.20;;;5.90;;
83241;SDS011;73133;47.848;9.000;2023-12-20T07:44:07;5.40;;;4.90;;
83241;SDS011;73133;47.848;9.000;2023-12-20T07:46:32;7.72;;;6.05;;
83241;SDS011;73133;47.848;9.000;2023-12-20T07:48:58;7.43;;;5.18;;
83241;SDS011;73133;47.848;9.000;2023-12-20T07:51:23;10.05;;;5.63;;
83241;SDS011;73133;47.848;9.000;2023-12-20T07:53:49;6.70;;;5.93;;
83241;SDS011;73133;47.848;9.000;2023-12-20T07:56:17;6.93;;;6.05;;
83241;SDS011;73133;47.848;9.000;2023-12-20T07:58:44;7.53;;;5.43;;
83241;SDS011;73133;47.848;9.000;2023-12-20T08:01:10;6.88;;;5.47;;
83241;SDS011;73133;47.848;9.000;2023-12-20T08:03:37;5.95;;;5.22;;
83241;SDS011;73133;47.848;9.000;2023-12-20T08:06:03;7.43;;;5.78;;
83241;SDS011;73133;47.848;9.000;2023-12-20T08:08:28;6.68;;;5.97;;
83241;SDS011;73133;47.848;9.000;2023-12-20T08:10:54;5.50;;;4.93;;
83241;SDS011;73133;47.848;9.000;2023-12-20T08:13:19;6.28;;;5.38;;
83241;SDS011;73133;47.848;9.000;2023-12-20T08:15:45;6.13;;;5.50;;
83241;SDS011;73133;47.848;9.000;2023-12-20T08:18:10;6.75;;;5.63;;
83241;SDS011;73133;47.848;9.000;2023-12-20T08:20:36;7.65;;;6.47;;
83241;SDS011;73133;47.848;9.000;2023-12-20T08:23:01;6.50;;;5.97;;
83241;SDS011;73133;47.848;9.000;2023-12-20T08:25:26;7.03;;;5.50;;
83241;SDS011;73133;47.848;9.000;2023-12-20T08:27:52;6.20;;;5.60;;
83241;SDS011;73133;47.848;9.000;2023-12-20T08:30:18;5.30;;;4.80;;
83241;SDS011;73133;47.848;9.000;2023-12-20T08:32:46;5.47;;;4.90;;
83241;SDS011;73133;47.848;9.000;2023-12-20T08:35:12;5.65;;;4.82;;
83241;SDS011;73133;47.848;9.000;2023-12-20T08:37:37;8.93;;;5.97;;
83241;SDS011;73133;47.848;9.000;2023-12-20T08:40:03;5.70;;;5.03;;
83241;SDS011;73133;47.848;9.000;2023-12-20T08:42:29;6.13;;;5.47;;
83241;SDS011;73133;47.848;9.000;2023-12-20T08:44:56;5.43;;;4.93;;
83241;SDS011;73133;47.848;9.000;2023-12-20T08:47:24;6.93;;;4.82;;
83241;SDS011;73133;47.848;9.000;2023-12-20T08:49:50;5.55;;;5.07;;
83241;SDS011;73133;47.848;9.000;2023-12-20T08:52:15;7.18;;;4.22;;
83241;SDS011;73133;47.848;9.000;2023-12-20T08:54:41;5.05;;;4.55;;
83241;SDS011;73133;47.848;9.000;2023-12-20T08:57:06;9.87;;;4.47;;
83241;SDS011;73133;47.848;9.000;2023-12-20T08:59:32;4.47;;;4.07;;
83241;SDS011;73133;47.848;9.000;2023-12-20T09:01:57;5.25;;;3.97;;
83241;SDS011;73133;47.848;9.000;2023-12-20T09:04:23;6.55;;;5.35;;
83241;SDS011;73133;47.848;9.000;2023-12-20T09:06:48;6.95;;;4.47;;
83241;SDS011;73133;47.848;9.000;2023-12-20T09:09:14;7.13;;;5.00;;
83241;SDS011;73133;47.848;9.000;2023-12-20T09:11:39;5.53;;;4.05;;
83241;SDS011;73133;47.848;9.000;2023-12-20T09:14:05;4.13;;;3.45;;
83241;SDS011;73133;47.848;9.000;2023-12-20T09:16:30;9.07;;;7.82;;
83241;SDS011;73133;47.848;9.000;2023-12-20T09:18:56;7.97;;;6.82;;
83241;SDS011;73133;47.848;9.000;2023-12-20T09:21:22;15.85;;;8.38;;
83241;SDS011;73133;47.848;9.000;2023-12-20T09:23:47;10.10;;;6.32;;
83241;SDS011;73133;47.848;9.000;2023-12-20T09:26:12;4.22;;;3.83;;
83241;SDS011;73133;47.848;9.000;2023-12-20T09:28:38;6.13;;;3.00;;
83241;SDS011;73133;47.848;9.000;2023-12-20T09:31:05;3.55;;;3.25;;
83241;SDS011;73133;47.848;9.000;2023-12-20T09:35:56;5.13;;;3.70;;
83241;SDS011;73133;47.848;9.000;2023-12-20T09:38:22;4.47;;;3.83;;
83241;SDS011;73133;47.848;9.000;2023-12-20T09:40:47;5.80;;;4.05;;
83241;SDS011;73133;47.848;9.000;2023-12-20T09:43:18;6.15;;;5.45;;
83241;SDS011;73133;47.848;9.000;2023-12-20T09:45:45;9.93;;;7.90;;
83241;SDS011;73133;47.848;9.000;2023-12-20T09:48:13;9.15;;;6.47;;
83241;SDS011;73133;47.848;9.000;2023-12-20T09:50:41;12.13;;;8.52;;
83241;SDS011;73133;47.848;9.000;2023-12-20T09:53:07;6.47;;;5.72;;
83241;SDS011;73133;47.848;9.000;2023-12-20T09:55:35;5.93;;;5.43;;
83241;SDS011;73133;47.848;9.000;2023-12-20T09:58:01;6.20;;;5.15;;
83241;SDS011;73133;47.848;9.000;2023-12-20T10:00:27;5.85;;;5.15;;
83241;SDS011;73133;47.848;9.000;2023-12-20T10:05:28;5.10;;;4.60;;
83241;SDS011;73133;47.848;9.000;2023-12-20T10:07:55;47.55;;;21.15;;
83241;SDS011;73133;47.848;9.000;2023-12-20T10:10:20;23.83;;;12.55;;
83241;SDS011;73133;47.848;9.000;2023-12-20T10:15:32;5.00;;;4.50;;
83241;SDS011;73133;47.848;9.000;2023-12-20T10:20:24;20.55;;;7.50;;
83241;SDS011;73133;47.848;9.000;2023-12-20T10:22:49;4.78;;;3.03;;
83241;SDS011;73133;47.848;9.000;2023-12-20T10:25:18;7.22;;;5.07;;
83241;SDS011;73133;47.848;9.000;2023-12-20T10:27:44;27.13;;;13.40;;
83241;SDS011;73133;47.848;9.000;2023-12-20T10:30:09;26.42;;;9.98;;
83241;SDS011;73133;47.848;9.000;2023-12-20T10:32:35;18.10;;;13.10;;
83241;SDS011;73133;47.848;9.000;2023-12-20T10:35:01;10.18;;;6.60;;
83241;SDS011;73133;47.848;9.000;2023-12-20T10:37:27;11.15;;;6.35;;
83241;SDS011;73133;47.848;9.000;2023-12-20T10:39:53;3.40;;;2.90;;
83241;SDS011;73133;47.848;9.000;2023-12-20T10:42:22;5.32;;;2.95;;
83241;SDS011;73133;47.848;9.000;2023-12-20T10:44:51;2.58;;;1.92;;
83241;SDS011;73133;47.848;9.000;2023-12-20T10:47:18;2.78;;;2.25;;
83241;SDS011;73133;47.848;9.000;2023-12-20T10:49:44;9.00;;;3.95;;
83241;SDS011;73133;47.848;9.000;2023-12-20T10:52:11;4.40;;;3.03;;
83241;SDS011;73133;47.848;9.000;2023-12-20T10:54:37;3.85;;;2.90;;
83241;SDS011;73133;47.848;9.000;2023-12-20T10:57:06;3.35;;;2.13;;
83241;SDS011;73133;47.848;9.000;2023-12-20T10:59:36;4.15;;;2.20;;
83241;SDS011;73133;47.848;9.000;2023-12-20T11:02:03;4.03;;;3.20;;
83241;SDS011;73133;47.848;9.000;2023-12-20T11:04:55;3.65;;;3.33;;
83241;SDS011;73133;47.848;9.000;2023-12-20T11:07:32;6.93;;;4.20;;
83241;SDS011;73133;47.848;9.000;2023-12-20T11:15:34;3.58;;;1.77;;
83241;SDS011;73133;47.848;9.000;2023-12-20T11:18:01;2.20;;;1.95;;
83241;SDS011;73133;47.848;9.000;2023-12-20T11:20:44;1.70;;;1.13;;
83241;SDS011;73133;47.848;9.000;2023-12-20T11:23:09;2.35;;;1.52;;
83241;SDS011;73133;47.848;9.000;2023-12-20T11:25:54;5.07;;;3.70;;
83241;SDS011;73133;47.848;9.000;2023-12-20T11:28:24;4.57;;;3.45;;
83241;SDS011;73133;47.848;9.000;2023-12-20T11:30:54;4.35;;;3.72;;
83241;SDS011;73133;47.848;9.000;2023-12-20T11:33:21;9.55;;;1.80;;
83241;SDS011;73133;47.848;9.000;2023-12-20T11:35:48;1.95;;;1.10;;
83241;SDS011;73133;47.848;9.000;2023-12-20T11:38:14;19.70;;;1.65;;
83241;SDS011;73133;47.848;9.000;2023-12-20T11:40:41;1.52;;;0.63;;
83241;SDS011;73133;47.848;9.000;2023-12-20T11:43:07;0.80;;;0.80;;
83241;SDS011;73133;47.848;9.000;2023-12-20T11:45:33;0.85;;;0.82;;
83241;SDS011;73133;47.848;9.000;2023-12-20T11:48:00;7.97;;;0.70;;
83241;SDS011;73133;47.848;9.000;2023-12-20T11:50:28;0.65;;;0.30;;
83241;SDS011;73133;47.848;9.000;2023-12-20T11:52:57;0.50;;;0.50;;
83241;SDS011;73133;47.848;9.000;2023-12-20T11:55:23;0.50;;;0.20;;
83241;SDS011;73133;47.848;9.000;2023-12-20T11:57:49;0.70;;;0.35;;
83241;SDS011;73133;47.848;9.000;2023-12-20T12:00:15;0.35;;;0.20;;
83241;SDS011;73133;47.848;9.000;2023-12-20T12:02:41;0.20;;;0.20;;
83241;SDS011;73133;47.848;9.000;2023-12-20T12:05:06;0.75;;;0.20;;
83241;SDS011;73133;47.848;9.000;2023-12-20T12:07:33;0.10;;;0.10;;
83241;SDS011;73133;47.848;9.000;2023-12-20T12:09:59;0.20;;;0.20;;
83241;SDS011;73133;47.848;9.000;2023-12-20T12:12:24;0.28;;;0.20;;
83241;SDS011;73133;47.848;9.000;2023-12-20T12:14:52;0.40;;;0.20;;
83241;SDS011;73133;47.848;9.000;2023-12-20T12:17:18;2.40;;;0.32;;
83241;SDS011;73133;47.848;9.000;2023-12-20T12:19:43;0.30;;;0.30;;
83241;SDS011;73133;47.848;9.000;2023-12-20T12:22:10;0.63;;;0.30;;
83241;SDS011;73133;47.848;9.000;2023-12-20T12:24:44;0.10;;;0.10;;
83241;SDS011;73133;47.848;9.000;2023-12-20T12:27:11;0.30;;;0.30;;
83241;SDS011;73133;47.848;9.000;2023-12-20T12:29:38;0.60;;;0.52;;
83241;SDS011;73133;47.848;9.000;2023-12-20T12:32:07;0.47;;;0.20;;
83241;SDS011;73133;47.848;9.000;2023-12-20T12:34:34;0.43;;;0.40;;
83241;SDS011;73133;47.848;9.000;2023-12-20T12:37:00;1.27;;;0.80;;
83241;SDS011;73133;47.848;9.000;2023-12-20T12:39:26;10.27;;;6.57;;
83241;SDS011;73133;47.848;9.000;2023-12-20T12:41:52;4.97;;;2.03;;
83241;SDS011;73133;47.848;9.000;2023-12-20T12:44:18;1.10;;;0.63;;
83241;SDS011;73133;47.848;9.000;2023-12-20T12:46:46;1.27;;;0.50;;
83241;SDS011;73133;47.848;9.000;2023-12-20T12:49:12;2.30;;;0.52;;
83241;SDS011;73133;47.848;9.000;2023-12-20T12:51:38;0.98;;;0.30;;
83241;SDS011;73133;47.848;9.000;2023-12-20T12:54:03;3.90;;;0.40;;
83241;SDS011;73133;47.848;9.000;2023-12-20T12:56:29;0.43;;;0.43;;
83241;SDS011;73133;47.848;9.000;2023-12-20T12:58:54;0.32;;;0.30;;
83241;SDS011;73133;47.848;9.000;2023-12-20T13:01:20;0.73;;;0.30;;
83241;SDS011;73133;47.848;9.000;2023-12-20T13:03:45;0.50;;;0.20;;
83241;SDS011;73133;47.848;9.000;2023-12-20T13:08:37;0.75;;;0.35;;
83241;SDS011;73133;47.848;9.000;2023-12-20T13:11:02;0.32;;;0.32;;
83241;SDS011;73133;47.848;9.000;2023-12-20T13:13:29;2.40;;;0.45;;
83241;SDS011;73133;47.848;9.000;2023-12-20T13:15:55;0.40;;;0.30;;
83241;SDS011;73133;47.848;9.000;2023-12-20T13:18:22;0.40;;;0.40;;
83241;SDS011;73133;47.848;9.000;2023-12-20T13:20:47;2.95;;;0.32;;
83241;SDS011;73133;47.848;9.000;2023-12-20T13:23:13;0.98;;;0.50;;
83241;SDS011;73133;47.848;9.000;2023-12-20T13:25:42;0.60;;;0.40;;
83241;SDS011;73133;47.848;9.000;2023-12-20T13:28:07;1.30;;;0.50;;
83241;SDS011;73133;47.848;9.000;2023-12-20T13:30:33;1.20;;;0.60;;
83241;SDS011;73133;47.848;9.000;2023-12-20T13:32:59;1.48;;;0.63;;
83241;SDS011;73133;47.848;9.000;2023-12-20T13:35:25;0.68;;;0.40;;
83241;SDS011;73133;47.848;9.000;2023-12-20T13:40:16;1.00;;;0.50;;
83241;SDS011;73133;47.848;9.000;2023-12-20T13:42:41;0.85;;;0.40;;
83241;SDS011;73133;47.848;9.000;2023-12-20T13:45:07;1.25;;;0.30;;
83241;SDS011;73133;47.848;9.000;2023-12-20T13:47:33;1.58;;;0.43;;
83241;SDS011;73133;47.848;9.000;2023-12-20T13:49:59;0.30;;;0.30;;
83241;SDS011;73133;47.848;9.000;2023-12-20T13:52:24;1.15;;;0.50;;
83241;SDS011;73133;47.848;9.000;2023-12-20T13:54:49;0.43;;;0.22;;
83241;SDS011;73133;47.848;9.000;2023-12-20T13:57:15;1.27;;;0.43;;
83241;SDS011;73133;47.848;9.000;2023-12-20T13:59:40;0.70;;;0.35;;
83241;SDS011;73133;47.848;9.000;2023-12-20T14:02:05;0.45;;;0.30;;
83241;SDS011;73133;47.848;9.000;2023-12-20T14:04:31;0.45;;;0.38;;
83241;SDS011;73133;47.848;9.000;2023-12-20T14:06:56;1.65;;;0.70;;
83241;SDS011;73133;47.848;9.000;2023-12-20T14:09:22;1.52;;;0.32;;
83241;SDS011;73133;47.848;9.000;2023-12-20T14:11:47;2.60;;;0.43;;
83241;SDS011;73133;47.848;9.000;2023-12-20T14:14:13;0.93;;;0.40;;
83241;SDS011;73133;47.848;9.000;2023-12-20T14:16:38;1.85;;;0.57;;
83241;SDS011;73133;47.848;9.000;2023-12-20T14:19:03;1.50;;;0.40;;
83241;SDS011;73133;47.848;9.000;2023-12-20T14:21:30;1.20;;;0.52;;
83241;SDS011;73133;47.848;9.000;2023-12-20T14:23:55;1.67;;;0.90;;
83241;SDS011;73133;47.848;9.000;2023-12-20T14:26:20;1.92;;;0.70;;
83241;SDS011;73133;47.848;9.000;2023-12-20T14:28:46;3.28;;;0.30;;
83241;SDS011;73133;47.848;9.000;2023-12-20T14:31:11;0.75;;;0.47;;
83241;SDS011;73133;47.848;9.000;2023-12-20T14:33:37;2.35;;;0.60;;
83241;SDS011;73133;47.848;9.000;2023-12-20T14:36:03;1.40;;;0.47;;
83241;SDS011;73133;47.848;9.000;2023-12-20T14:38:30;1.55;;;0.70;;
83241;SDS011;73133;47.848;9.000;2023-12-20T14:40:58;3.10;;;0.43;;
83241;SDS011;73133;47.848;9.000;2023-12-20T14:43:24;0.50;;;0.30;;
83241;SDS011;73133;47.848;9.000;2023-12-20T14:45:51;2.78;;;0.60;;
83241;SDS011;73133;47.848;9.000;2023-12-20T14:48:17;1.23;;;0.57;;
83241;SDS011;73133;47.848;9.000;2023-12-20T14:50:43;0.75;;;0.30;;
83241;SDS011;73133;47.848;9.000;2023-12-20T14:55:34;2.85;;;0.80;;
83241;SDS011;73133;47.848;9.000;2023-12-20T14:58:00;4.90;;;1.10;;
83241;SDS011;73133;47.848;9.000;2023-12-20T15:00:25;2.33;;;0.55;;
83241;SDS011;73133;47.848;9.000;2023-12-20T15:02:51;1.65;;;0.60;;
83241;SDS011;73133;47.848;9.000;2023-12-20T15:05:19;3.13;;;0.90;;
83241;SDS011;73133;47.848;9.000;2023-12-20T15:07:44;4.93;;;0.65;;
83241;SDS011;73133;47.848;9.000;2023-12-20T15:10:10;1.83;;;0.93;;
83241;SDS011;73133;47.848;9.000;2023-12-20T15:12:35;1.67;;;0.73;;
83241;SDS011;73133;47.848;9.000;2023-12-20T15:15:00;3.75;;;0.68;;
83241;SDS011;73133;47.848;9.000;2023-12-20T15:17:26;3.92;;;0.32;;
83241;SDS011;73133;47.848;9.000;2023-12-20T15:19:52;4.43;;;0.90;;
83241;SDS011;73133;47.848;9.000;2023-12-20T15:22:17;0.80;;;0.55;;
83241;SDS011;73133;47.848;9.000;2023-12-20T15:24:42;3.55;;;0.80;;
83241;SDS011;73133;47.848;9.000;2023-12-20T15:27:10;9.95;;;1.42;;
83241;SDS011;73133;47.848;9.000;2023-12-20T15:29:36;13.75;;;2.00;;
83241;SDS011;73133;47.848;9.000;2023-12-20T15:32:01;2.08;;;0.50;;
83241;SDS011;73133;47.848;9.000;2023-12-20T15:34:28;1.63;;;0.60;;
83241;SDS011;73133;47.848;9.000;2023-12-20T15:36:54;3.42;;;1.02;;
83241;SDS011;73133;47.848;9.000;2023-12-20T15:39:20;2.15;;;0.93;;
83241;SDS011;73133;47.848;9.000;2023-12-20T15:41:45;3.55;;;0.98;;
83241;SDS011;73133;47.848;9.000;2023-12-20T15:44:11;5.10;;;0.75;;
83241;SDS011;73133;47.848;9.000;2023-12-20T15:46:36;7.00;;;1.17;;
83241;SDS011;73133;47.848;9.000;2023-12-20T15:49:02;3.22;;;0.95;;
83241;SDS011;73133;47.848;9.000;2023-12-20T15:51:27;4.22;;;1.00;;
83241;SDS011;73133;47.848;9.000;2023-12-20T15:53:52;5.17;;;1.27;;
83241;SDS011;73133;47.848;9.000;2023-12-20T15:56:18;2.93;;;1.63;;
83241;SDS011;73133;47.848;9.000;2023-12-20T15:58:44;11.50;;;1.88;;
83241;SDS011;73133;47.848;9.000;2023-12-20T16:01:10;3.92;;;1.38;;
83241;SDS011;73133;47.848;9.000;2023-12-20T16:03:35;9.38;;;2.17;;
83241;SDS011;73133;47.848;9.000;2023-12-20T16:06:00;4.88;;;2.05;;
83241;SDS011;73133;47.848;9.000;2023-12-20T16:08:26;12.05;;;3.45;;
83241;SDS011;73133;47.848;9.000;2023-12-20T16:10:52;12.80;;;5.57;;
83241;SDS011;73133;47.848;9.000;2023-12-20T16:13:17;10.27;;;3.13;;
83241;SDS011;73133;47.848;9.000;2023-12-20T16:15:44;4.63;;;1.40;;
83241;SDS011;73133;47.848;9.000;2023-12-20T16:18:10;7.00;;;2.28;;
83241;SDS011;73133;47.848;9.000;2023-12-20T16:20:38;5.50;;;1.60;;
83241;SDS011;73133;47.848;9.000;2023-12-20T16:23:04;3.70;;;1.55;;
83241;SDS011;73133;47.848;9.000;2023-12-20T16:25:30;1.92;;;1.20;;
83241;SDS011;73133;47.848;9.000;2023-12-20T16:27:56;6.18;;;1.40;;
83241;SDS011;73133;47.848;9.000;2023-12-20T16:30:21;3.75;;;1.55;;
83241;SDS011;73133;47.848;9.000;2023-12-20T16:32:47;2.67;;;1.30;;
83241;SDS011;73133;47.848;9.000;2023-12-20T16:35:13;12.35;;;1.52;;
83241;SDS011;73133;47.848;9.000;2023-12-20T16:37:38;2.17;;;1.20;;
83241;SDS011;73133;47.848;9.000;2023-12-20T16:40:04;2.53;;;1.30;;
83241;SDS011;73133;47.848;9.000;2023-12-20T16:42:30;7.72;;;1.95;;
83241;SDS011;73133;47.848;9.000;2023-12-20T16:44:56;5.03;;;1.08;;
83241;SDS011;73133;47.848;9.000;2023-12-20T16:47:21;3.80;;;1.58;;
83241;SDS011;73133;47.848;9.000;2023-12-20T16:49:47;1.98;;;1.10;;
83241;SDS011;73133;47.848;9.000;2023-12-20T16:52:12;3.03;;;1.27;;
83241;SDS011;73133;47.848;9.000;2023-12-20T16:54:38;4.70;;;1.10;;
83241;SDS011;73133;47.848;9.000;2023-12-20T16:57:03;2.13;;;1.27;;
83241;SDS011;73133;47.848;9.000;2023-12-20T16:59:29;2.75;;;1.52;;
83241;SDS011;73133;47.848;9.000;2023-12-20T17:02:00;8.87;;;1.20;;
83241;SDS011;73133;47.848;9.000;2023-12-20T17:04:29;2.85;;;0.82;;
83241;SDS011;73133;47.848;9.000;2023-12-20T17:06:57;6.57;;;1.85;;
83241;SDS011;73133;47.848;9.000;2023-12-20T17:09:22;5.72;;;1.13;;
83241;SDS011;73133;47.848;9.000;2023-12-20T17:11:48;4.70;;;1.20;;
83241;SDS011;73133;47.848;9.000;2023-12-20T17:14:13;5.13;;;1.08;;
83241;SDS011;73133;47.848;9.000;2023-12-20T17:16:39;2.42;;;1.23;;
83241;SDS011;73133;47.848;9.000;2023-12-20T17:19:04;6.57;;;1.20;;
83241;SDS011;73133;47.848;9.000;2023-12-20T17:21:30;1.25;;;0.50;;
83241;SDS011;73133;47.848;9.000;2023-12-20T17:23:56;2.08;;;0.68;;
83241;SDS011;73133;47.848;9.000;2023-12-20T17:26:21;6.55;;;1.13;;
83241;SDS011;73133;47.848;9.000;2023-12-20T17:28:47;5.20;;;1.13;;
83241;SDS011;73133;47.848;9.000;2023-12-20T17:31:12;8.57;;;1.80;;
83241;SDS011;73133;47.848;9.000;2023-12-20T17:33:38;1.80;;;0.80;;
83241;SDS011;73133;47.848;9.000;2023-12-20T17:36:03;3.75;;;1.67;;
83241;SDS011;73133;47.848;9.000;2023-12-20T17:38:30;9.15;;;0.98;;
83241;SDS011;73133;47.848;9.000;2023-12-20T17:40:57;4.00;;;1.95;;
83241;SDS011;73133;47.848;9.000;2023-12-20T17:43:23;5.53;;;1.20;;
83241;SDS011;73133;47.848;9.000;2023-12-20T17:45:49;3.80;;;1.23;;
83241;SDS011;73133;47.848;9.000;2023-12-20T17:48:14;9.20;;;2.17;;
83241;SDS011;73133;47.848;9.000;2023-12-20T17:50:40;4.65;;;1.42;;
83241;SDS011;73133;47.848;9.000;2023-12-20T17:53:05;3.42;;;0.95;;
83241;SDS011;73133;47.848;9.000;2023-12-20T17:55:31;4.40;;;1.07;;
83241;SDS011;73133;47.848;9.000;2023-12-20T17:57:56;4.87;;;1.67;;
83241;SDS011;73133;47.848;9.000;2023-12-20T18:00:24;15.77;;;2.25;;
83241;SDS011;73133;47.848;9.000;2023-12-20T18:02:53;11.45;;;3.25;;
83241;SDS011;73133;47.848;9.000;2023-12-20T18:05:22;13.73;;;4.78;;
83241;SDS011;73133;47.848;9.000;2023-12-20T18:07:48;17.25;;;5.72;;
83241;SDS011;73133;47.848;9.000;2023-12-20T18:10:14;23.30;;;4.00;;
83241;SDS011;73133;47.848;9.000;2023-12-20T18:12:40;38.17;;;8.27;;
83241;SDS011;73133;47.848;9.000;2023-12-20T18:15:05;18.05;;;4.32;;
83241;SDS011;73133;47.848;9.000;2023-12-20T18:17:31;10.80;;;3.22;;
83241;SDS011;73133;47.848;9.000;2023-12-20T18:19:57;7.80;;;2.20;;
83241;SDS011;73133;47.848;9.000;2023-12-20T18:22:24;28.40;;;10.48;;
83241;SDS011;73133;47.848;9.000;2023-12-20T18:24:50;4.53;;;2.22;;
83241;SDS011;73133;47.848;9.000;2023-12-20T18:27:16;9.93;;;3.85;;
83241;SDS011;73133;47.848;9.000;2023-12-20T18:29:41;10.40;;;3.50;;
83241;SDS011;73133;47.848;9.000;2023-12-20T18:32:06;35.00;;;11.73;;
83241;SDS011;73133;47.848;9.000;2023-12-20T18:34:32;4.82;;;2.13;;
83241;SDS011;73133;47.848;9.000;2023-12-20T18:36:58;11.18;;;2.40;;
83241;SDS011;73133;47.848;9.000;2023-12-20T18:39:24;8.90;;;2.15;;
83241;SDS011;73133;47.848;9.000;2023-12-20T18:41:50;3.67;;;2.15;;
83241;SDS011;73133;47.848;9.000;2023-12-20T18:44:15;8.65;;;2.20;;
83241;SDS011;73133;47.848;9.000;2023-12-20T18:46:42;6.78;;;2.30;;
83241;SDS011;73133;47.848;9.000;2023-12-20T18:49:08;7.05;;;2.47;;
83241;SDS011;73133;47.848;9.000;2023-12-20T18:51:34;8.32;;;3.78;;
83241;SDS011;73133;47.848;9.000;2023-12-20T18:53:59;10.45;;;4.70;;
83241;SDS011;73133;47.848;9.000;2023-12-20T18:56:25;9.85;;;3.72;;
83241;SDS011;73133;47.848;9.000;2023-12-20T18:58:50;14.43;;;3.88;;
83241;SDS011;73133;47.848;9.000;2023-12-20T19:01:16;9.50;;;3.95;;
83241;SDS011;73133;47.848;9.000;2023-12-20T19:03:41;10.45;;;3.42;;